Ride Results

Kilkivan (18-10-2014)
Ride distance: 80.0 km

Outcomes - Kilkivan (18-10-2014)
Division No. of Entries Retired / DNE Completed Withdrawn Ineligible V/O Percentage Completed
HW 9 - 6 - - 3 66.67%
MW 22 - 16 2 - 4 72.73%
LW 18 - 17 - - 1 94.44%
JN 11 - 8 1 - 2 72.73%
Totals 60 - 47 3 - 10 78.33%
Results - Kilkivan (18-10-2014)
No. Rider Horse Place Time Leg Speeds Total
Km/Hr
H/R bpm
Heavyweight
4 Dan Winkel Shardell Azeem 1 (BC) 4:10:00 21.4, 17.3 19.20 36, 46, 44 (Avg:45)
57 Rod Strahan Burralga Sambukha 2 6:00:00 13.3, 13.3 13.33 37, 42, 48 (Avg:45)
14 Kathryn Priol Royal Windsor Jacob 3 6:41:00 12.3, 11.5 11.97 41, 45, 51 (Avg:48)
37 Gavin Bartlett Whitsunday Jade 4 7:15:00 11.4, 10.6 11.03 35, 42, 48 (Avg:45)
27 Sean Field Doogie Howser 5 7:36:00 12.2, 9.2 10.53 41, 45, 47 (Avg:46)
58 Emma Quilter Brookleigh Maestro 6 7:46:00 12.1, 8.9 10.30 39, 44, 53 (Avg:48)
60 Mark Nimon Stratharlie Sheriff Lame L2 0:00:00 17.1, 15.1 - 44, 47, 49 (Avg:48)
23 Michael Shaw Zenith Park Qadir Lame L2 0:00:00 13.1, 12.9 - 37, 42, 50 (Avg:46)
7 Barry Steele Chase Lame L1 0:00:00 13.3 - 37, 52 (Avg:52)
Middleweight
19 Angela Waldock Gundabah Fair Lady 1 (BC) 3:57:00 21.2, 19.3 20.25 48, 52, 59 (Avg:55)
3 Karen Winkel Xanadu Barabbous 2 4:10:00 21.4, 17.3 19.20 38, 49, 45 (Avg:47)
13 Sarah Curtis Lanamere Indianna 3 5:14:00 15.9, 14.6 15.29 38, 44, 59 (Avg:51)
16 Ruth Dixon El Romero 4 5:21:00 15.9, 14.0 14.95 40, 42, 47 (Avg:44)
64 Anne Barlow Sa-Har Magnolia 5 5:38:00 14.7, 13.7 14.20 32, 42, 43 (Avg:42)
5 Adam Garvin Simeon Shovan 6 6:08:00 13.1, 12.9 13.04 53, 53, 57 (Avg:55)
54 Dan Cook Limerick's Illusion 7 6:10:00 13.3, 12.6 12.97 38, 46, 50 (Avg:48)
63 Jo Barsby Jamaz Amir 8 6:27:00 13.3, 11.5 12.40 36, 43, 56 (Avg:49)
33 Brook Sample Brookleigh Dylan 8 6:27:00 12.8, 11.9 12.40 34, 46, 48 (Avg:47)
39 Taro Tollitt Gheerulla Sargent 8 6:27:00 12.8, 11.9 12.40 39, 40, 41 (Avg:40)
24 Tegan Streeter Missy 11 6:59:00 13.1, 10.1 11.46 48, 41, 44 (Avg:42)
38 Mandy Barth Picnic Park Bahretta 12 7:15:00 11.4, 10.6 11.03 46, 53, 54 (Avg:53)
56 Celeste Manwaring Jum Jum Silver Storm 13 7:32:00 12.3, 9.3 10.62 40, 43, 47 (Avg:45)
52 Kerryn Agnew Heathfield's Prince 14 7:36:00 11.4, 9.7 10.53 37, 44, 48 (Avg:46)
62 Olga Bartlett Mt Eerwah Anastazia 14 7:36:00 11.0, 10.0 10.53 30, 48, 45 (Avg:46)
44 Jacinta Stubbings Cameo Pygmalion 16 7:48:00 11.4, 9.2 10.26 37, 47, 52 (Avg:49)
59 Saasha Grogan Cajun Lame L2 0:00:00 12.1, 8.9 - 43, 47, 54 (Avg:50)
2 Julie Mohi Arabiana Banama Lame L2 0:00:00 13.3, 10.9 - 40, 46, 54 (Avg:50)
46 Debbie Edwards Bashan Phoenix Withdrawn L1 0:00:00 - - 37, 45 (Avg:45)
53 Ken Moir Cameo Helmzman Lame L1 0:00:00 21.8 - 34, 46 (Avg:46)
41 Malin Olsson Brookleigh Marlon Lame L1 0:00:00 12.8 - 38, 45 (Avg:45)
18 Samantha Yates Ausden Prince Mahal Withdrawn L1 0:00:00 - - 38, 43 (Avg:43)
Lightweight
25 Amaya Thomas Winderella Lodge Sphinx 1 3:36:00 21.2, 23.3 22.22 29, 39, 47 (Avg:43)
35 Leigh Ann Sample Brookleigh Bailey 2 (BC) 5:10:00 15.7, 15.1 15.48 39, 45, 50 (Avg:47)
49 Ute Jordan Anijoa Delilah 3 5:21:00 15.9, 14.0 14.95 48, 48, 54 (Avg:51)
28 Sue Sutcliffe Zanes Shadow 4 5:38:00 14.6, 13.7 14.20 32, 41, 44 (Avg:42)
32 Mary Sims Mt Eerwah Silver Duet 5 5:40:00 15.6, 12.8 14.12 40, 43, 50 (Avg:46)
66 Kaylea Maher Matta Mia Sahh 6 6:05:00 13.1, 13.1 13.15 39, 50, 50 (Avg:50)
15 Jan Tyrrell Steel Poppy Zen 7 6:35:00 13.1, 11.2 12.15 38, 45, 47 (Avg:46)
21 Claudia Gillies Kholonial Bronzewings 8 6:36:00 13.4, 11.0 12.12 34, 39, 45 (Avg:42)
22 Carla Jones Kholonial Bartholomew 8 6:36:00 13.4, 11.0 12.12 38, 47, 51 (Avg:49)
42 Xanthe Webb Bahrein Zambique 10 6:37:00 12.6, 11.5 12.09 43, 45, 55 (Avg:50)
1 Anne Hollindale Mercury Lodge Ferreddy 11 6:39:00 13.3, 10.9 12.03 38, 38, 46 (Avg:42)
48 Ashlea King Storm 12 7:18:00 11.7, 10.3 10.96 27, 41, 44 (Avg:42)
50 Sasha Laws-King Heathfield's Bin Sadaqa 13 7:36:00 11.4, 9.7 10.53 34, 43, 44 (Avg:43)
11 Renee Trunley Misty Day 14 7:44:00 11.0, 9.7 10.34 33, 43, 47 (Avg:45)
45 Sophie Bradshaw Captain Jack Sparrow 15 7:48:00 11.4, 9.2 10.26 27, 42, 44 (Avg:43)
47 Pandora Bevan Bashan Tahpenes 16 8:05:00 9.9, 9.8 9.90 43, 49, 51 (Avg:50)
55 Robin Young Longrun Beijing 17 8:07:00 12.6, 8.0 9.86 40, 42, 49 (Avg:45)
43 Leigh Rich Miva Avanti Lame L1 0:00:00 12.2 - 48, 40 (Avg:40)
Junior
26 Emma Dimech Soleil De Minuit 1 3:35:00 21.4, 23.3 22.33 46, 49, 49 (Avg:49)
29 Renae Chapman Sahala Astronomer 2 (BC) 3:36:00 21.8, 22.6 22.22 34, 44, 44 (Avg:44)
34 Matty Sample Brookleigh Milo 3 5:10:00 15.7, 15.1 15.48 38, 45, 47 (Avg:46)
30 Gemma Sutcliffe Achilles Raindrop 4 5:38:00 14.6, 13.7 14.20 37, 52, 56 (Avg:54)
61 Brooke Marshall Abbeywood Where It's At 5 6:33:00 13.1, 11.4 12.21 36, 53, 53 (Avg:53)
65 Gemma Dickenson Melcot Bella 6 7:44:00 10.9, 9.7 10.34 34, 37, 38 (Avg:37)
31 Kenzie Roberton Kytesborough Image 6 7:44:00 11.0, 9.7 10.34 31, 39, 43 (Avg:41)
12 Ronan McKay Bellarine Obama 8 8:05:00 9.9, 9.8 9.90 39, 47, 50 (Avg:48)
20 Lili-Rose Kake Emac Lame L2 0:00:00 21.8, 22.6 - 40, 43, 49 (Avg:46)
8 Tahlia Franke Indiana Seabreeze Heart Rate L1 0:00:00 21.2 - 36, 59 (Avg:59)
40 Alissa Woods Brookleigh Elvis Withdrawn L1 0:00:00 - - 48, 45 (Avg:45)